sensor_id;sensor_type;location;lat;lon;timestamp;P1;durP1;ratioP1;P2;durP2;ratioP2
65187;SDS011;51775;51.148;6.950;2023-05-10T00:01:22;1.25;;;0.70;;
65187;SDS011;51775;51.148;6.950;2023-05-10T00:03:47;1.23;;;0.82;;
65187;SDS011;51775;51.148;6.950;2023-05-10T00:06:12;1.08;;;0.70;;
65187;SDS011;51775;51.148;6.950;2023-05-10T00:08:38;1.30;;;0.80;;
65187;SDS011;51775;51.148;6.950;2023-05-10T00:11:03;1.48;;;0.90;;
65187;SDS011;51775;51.148;6.950;2023-05-10T00:13:31;1.40;;;0.90;;
65187;SDS011;51775;51.148;6.950;2023-05-10T00:15:57;1.30;;;0.90;;
65187;SDS011;51775;51.148;6.950;2023-05-10T00:18:22;1.38;;;0.90;;
65187;SDS011;51775;51.148;6.950;2023-05-10T00:20:47;1.33;;;0.95;;
65187;SDS011;51775;51.148;6.950;2023-05-10T00:23:13;1.45;;;0.90;;
65187;SDS011;51775;51.148;6.950;2023-05-10T00:25:38;1.40;;;0.90;;
65187;SDS011;51775;51.148;6.950;2023-05-10T00:28:03;1.40;;;0.95;;
65187;SDS011;51775;51.148;6.950;2023-05-10T00:30:29;1.10;;;0.80;;
65187;SDS011;51775;51.148;6.950;2023-05-10T00:32:54;1.70;;;1.00;;
65187;SDS011;51775;51.148;6.950;2023-05-10T00:35:19;1.90;;;0.90;;
65187;SDS011;51775;51.148;6.950;2023-05-10T00:37:45;1.38;;;0.90;;
65187;SDS011;51775;51.148;6.950;2023-05-10T00:40:10;1.77;;;0.93;;
65187;SDS011;51775;51.148;6.950;2023-05-10T00:42:36;1.40;;;1.00;;
65187;SDS011;51775;51.148;6.950;2023-05-10T00:45:01;1.35;;;1.00;;
65187;SDS011;51775;51.148;6.950;2023-05-10T00:47:27;1.50;;;1.00;;
65187;SDS011;51775;51.148;6.950;2023-05-10T00:49:52;1.70;;;1.10;;
65187;SDS011;51775;51.148;6.950;2023-05-10T00:52:18;1.48;;;0.93;;
65187;SDS011;51775;51.148;6.950;2023-05-10T00:54:43;1.50;;;0.93;;
65187;SDS011;51775;51.148;6.950;2023-05-10T00:57:09;1.38;;;1.00;;
65187;SDS011;51775;51.148;6.950;2023-05-10T00:59:34;1.52;;;1.00;;
65187;SDS011;51775;51.148;6.950;2023-05-10T01:01:59;1.40;;;0.95;;
65187;SDS011;51775;51.148;6.950;2023-05-10T01:04:25;1.52;;;1.00;;
65187;SDS011;51775;51.148;6.950;2023-05-10T01:06:51;1.40;;;1.00;;
65187;SDS011;51775;51.148;6.950;2023-05-10T01:09:17;1.65;;;1.00;;
65187;SDS011;51775;51.148;6.950;2023-05-10T01:11:42;1.38;;;1.00;;
65187;SDS011;51775;51.148;6.950;2023-05-10T01:14:07;1.38;;;0.85;;
65187;SDS011;51775;51.148;6.950;2023-05-10T01:16:35;1.20;;;0.90;;
65187;SDS011;51775;51.148;6.950;2023-05-10T01:19:06;1.55;;;1.00;;
65187;SDS011;51775;51.148;6.950;2023-05-10T01:27:20;1.45;;;0.93;;
65187;SDS011;51775;51.148;6.950;2023-05-10T01:32:51;1.30;;;0.85;;
65187;SDS011;51775;51.148;6.950;2023-05-10T01:35:45;1.40;;;1.00;;
65187;SDS011;51775;51.148;6.950;2023-05-10T01:40:55;1.23;;;0.80;;
65187;SDS011;51775;51.148;6.950;2023-05-10T01:46:47;1.35;;;0.90;;
65187;SDS011;51775;51.148;6.950;2023-05-10T01:49:25;0.90;;;0.70;;
65187;SDS011;51775;51.148;6.950;2023-05-10T01:51:54;1.10;;;0.70;;
65187;SDS011;51775;51.148;6.950;2023-05-10T01:54:26;1.20;;;0.80;;
65187;SDS011;51775;51.148;6.950;2023-05-10T01:57:00;0.98;;;0.77;;
65187;SDS011;51775;51.148;6.950;2023-05-10T01:59:30;0.93;;;0.55;;
65187;SDS011;51775;51.148;6.950;2023-05-10T02:01:59;0.77;;;0.60;;
65187;SDS011;51775;51.148;6.950;2023-05-10T02:04:26;0.75;;;0.63;;
65187;SDS011;51775;51.148;6.950;2023-05-10T02:06:52;0.80;;;0.68;;
65187;SDS011;51775;51.148;6.950;2023-05-10T02:09:19;1.10;;;0.80;;
65187;SDS011;51775;51.148;6.950;2023-05-10T02:11:46;0.60;;;0.50;;
65187;SDS011;51775;51.148;6.950;2023-05-10T02:14:13;0.80;;;0.60;;
65187;SDS011;51775;51.148;6.950;2023-05-10T02:16:40;1.02;;;0.80;;
65187;SDS011;51775;51.148;6.950;2023-05-10T02:19:07;1.25;;;0.70;;
65187;SDS011;51775;51.148;6.950;2023-05-10T02:21:33;0.70;;;0.55;;
65187;SDS011;51775;51.148;6.950;2023-05-10T02:24:00;0.80;;;0.68;;
65187;SDS011;51775;51.148;6.950;2023-05-10T02:26:27;1.10;;;0.70;;
65187;SDS011;51775;51.148;6.950;2023-05-10T02:28:54;0.70;;;0.60;;
65187;SDS011;51775;51.148;6.950;2023-05-10T02:31:20;1.60;;;0.70;;
65187;SDS011;51775;51.148;6.950;2023-05-10T02:33:47;1.10;;;0.80;;
65187;SDS011;51775;51.148;6.950;2023-05-10T02:36:13;0.95;;;0.70;;
65187;SDS011;51775;51.148;6.950;2023-05-10T02:38:40;1.10;;;0.70;;
65187;SDS011;51775;51.148;6.950;2023-05-10T02:41:06;1.20;;;0.82;;
65187;SDS011;51775;51.148;6.950;2023-05-10T02:43:33;0.93;;;0.70;;
65187;SDS011;51775;51.148;6.950;2023-05-10T02:46:00;0.90;;;0.68;;
65187;SDS011;51775;51.148;6.950;2023-05-10T02:48:25;1.00;;;0.70;;
65187;SDS011;51775;51.148;6.950;2023-05-10T02:50:50;1.58;;;0.90;;
65187;SDS011;51775;51.148;6.950;2023-05-10T02:53:18;1.15;;;0.85;;
65187;SDS011;51775;51.148;6.950;2023-05-10T02:55:50;0.65;;;0.60;;
65187;SDS011;51775;51.148;6.950;2023-05-10T02:58:17;0.98;;;0.80;;
65187;SDS011;51775;51.148;6.950;2023-05-10T03:00:42;0.93;;;0.77;;
65187;SDS011;51775;51.148;6.950;2023-05-10T03:03:08;1.00;;;0.80;;
65187;SDS011;51775;51.148;6.950;2023-05-10T03:05:33;1.40;;;0.90;;
65187;SDS011;51775;51.148;6.950;2023-05-10T03:07:58;1.30;;;0.80;;
65187;SDS011;51775;51.148;6.950;2023-05-10T03:10:26;1.10;;;0.80;;
65187;SDS011;51775;51.148;6.950;2023-05-10T03:13:01;0.82;;;0.70;;
65187;SDS011;51775;51.148;6.950;2023-05-10T03:18:33;1.50;;;0.90;;
65187;SDS011;51775;51.148;6.950;2023-05-10T03:21:07;0.98;;;0.70;;
65187;SDS011;51775;51.148;6.950;2023-05-10T03:23:43;1.30;;;0.90;;
65187;SDS011;51775;51.148;6.950;2023-05-10T03:26:31;1.13;;;0.80;;
65187;SDS011;51775;51.148;6.950;2023-05-10T03:28:57;0.95;;;0.75;;
65187;SDS011;51775;51.148;6.950;2023-05-10T03:31:23;0.95;;;0.75;;
65187;SDS011;51775;51.148;6.950;2023-05-10T03:33:49;1.08;;;0.73;;
65187;SDS011;51775;51.148;6.950;2023-05-10T03:36:15;1.42;;;0.80;;
65187;SDS011;51775;51.148;6.950;2023-05-10T03:38:40;1.48;;;0.93;;
65187;SDS011;51775;51.148;6.950;2023-05-10T03:41:06;1.00;;;0.80;;
65187;SDS011;51775;51.148;6.950;2023-05-10T03:43:31;1.10;;;0.80;;
65187;SDS011;51775;51.148;6.950;2023-05-10T03:45:56;1.00;;;0.80;;
65187;SDS011;51775;51.148;6.950;2023-05-10T03:48:22;1.40;;;0.90;;
65187;SDS011;51775;51.148;6.950;2023-05-10T03:50:47;1.17;;;0.88;;
65187;SDS011;51775;51.148;6.950;2023-05-10T03:53:12;1.23;;;0.75;;
65187;SDS011;51775;51.148;6.950;2023-05-10T03:55:38;1.10;;;0.70;;
65187;SDS011;51775;51.148;6.950;2023-05-10T03:58:04;1.15;;;0.88;;
65187;SDS011;51775;51.148;6.950;2023-05-10T04:00:29;1.17;;;0.80;;
65187;SDS011;51775;51.148;6.950;2023-05-10T04:02:54;1.17;;;0.85;;
65187;SDS011;51775;51.148;6.950;2023-05-10T04:05:20;1.13;;;0.75;;
65187;SDS011;51775;51.148;6.950;2023-05-10T04:07:45;1.08;;;0.80;;
65187;SDS011;51775;51.148;6.950;2023-05-10T04:10:10;1.30;;;0.80;;
65187;SDS011;51775;51.148;6.950;2023-05-10T04:12:36;0.77;;;0.60;;
65187;SDS011;51775;51.148;6.950;2023-05-10T04:15:01;1.13;;;0.60;;
65187;SDS011;51775;51.148;6.950;2023-05-10T04:17:26;1.10;;;0.90;;
65187;SDS011;51775;51.148;6.950;2023-05-10T04:19:52;1.20;;;0.88;;
65187;SDS011;51775;51.148;6.950;2023-05-10T04:22:17;1.10;;;0.80;;
65187;SDS011;51775;51.148;6.950;2023-05-10T04:24:42;1.65;;;0.90;;
65187;SDS011;51775;51.148;6.950;2023-05-10T04:27:08;1.08;;;0.80;;
65187;SDS011;51775;51.148;6.950;2023-05-10T04:29:33;0.98;;;0.77;;
65187;SDS011;51775;51.148;6.950;2023-05-10T04:31:58;1.20;;;0.73;;
65187;SDS011;51775;51.148;6.950;2023-05-10T04:34:25;1.23;;;0.80;;
65187;SDS011;51775;51.148;6.950;2023-05-10T04:36:50;1.02;;;0.80;;
65187;SDS011;51775;51.148;6.950;2023-05-10T04:39:15;1.20;;;0.90;;
65187;SDS011;51775;51.148;6.950;2023-05-10T04:41:40;0.93;;;0.70;;
65187;SDS011;51775;51.148;6.950;2023-05-10T04:44:06;1.52;;;0.80;;
65187;SDS011;51775;51.148;6.950;2023-05-10T04:46:31;1.05;;;0.77;;
65187;SDS011;51775;51.148;6.950;2023-05-10T04:48:56;2.17;;;0.90;;
65187;SDS011;51775;51.148;6.950;2023-05-10T04:51:21;1.75;;;1.02;;
65187;SDS011;51775;51.148;6.950;2023-05-10T04:53:47;1.98;;;1.20;;
65187;SDS011;51775;51.148;6.950;2023-05-10T04:56:12;2.53;;;1.15;;
65187;SDS011;51775;51.148;6.950;2023-05-10T04:58:37;2.38;;;1.00;;
65187;SDS011;51775;51.148;6.950;2023-05-10T05:01:06;2.00;;;1.10;;
65187;SDS011;51775;51.148;6.950;2023-05-10T05:03:32;2.10;;;1.13;;
65187;SDS011;51775;51.148;6.950;2023-05-10T05:05:57;2.25;;;1.27;;
65187;SDS011;51775;51.148;6.950;2023-05-10T05:08:22;1.90;;;1.17;;
65187;SDS011;51775;51.148;6.950;2023-05-10T05:10:48;2.00;;;1.30;;
65187;SDS011;51775;51.148;6.950;2023-05-10T05:13:14;1.90;;;1.30;;
65187;SDS011;51775;51.148;6.950;2023-05-10T05:15:39;1.90;;;1.30;;
65187;SDS011;51775;51.148;6.950;2023-05-10T05:18:04;2.88;;;1.60;;
65187;SDS011;51775;51.148;6.950;2023-05-10T05:20:31;3.10;;;1.50;;
65187;SDS011;51775;51.148;6.950;2023-05-10T05:22:57;2.50;;;1.40;;
65187;SDS011;51775;51.148;6.950;2023-05-10T05:25:22;1.95;;;1.30;;
65187;SDS011;51775;51.148;6.950;2023-05-10T05:27:48;2.00;;;1.40;;
65187;SDS011;51775;51.148;6.950;2023-05-10T05:30:13;2.20;;;1.38;;
65187;SDS011;51775;51.148;6.950;2023-05-10T05:32:38;3.88;;;1.58;;
65187;SDS011;51775;51.148;6.950;2023-05-10T05:35:04;2.22;;;1.23;;
65187;SDS011;51775;51.148;6.950;2023-05-10T05:37:29;2.97;;;1.35;;
65187;SDS011;51775;51.148;6.950;2023-05-10T05:39:55;1.80;;;1.20;;
65187;SDS011;51775;51.148;6.950;2023-05-10T05:42:20;1.88;;;1.10;;
65187;SDS011;51775;51.148;6.950;2023-05-10T05:44:45;2.08;;;1.25;;
65187;SDS011;51775;51.148;6.950;2023-05-10T05:47:10;2.15;;;1.30;;
65187;SDS011;51775;51.148;6.950;2023-05-10T05:49:36;2.00;;;1.10;;
65187;SDS011;51775;51.148;6.950;2023-05-10T05:52:02;1.77;;;1.10;;
65187;SDS011;51775;51.148;6.950;2023-05-10T05:54:28;2.75;;;1.40;;
65187;SDS011;51775;51.148;6.950;2023-05-10T05:56:54;3.83;;;1.10;;
65187;SDS011;51775;51.148;6.950;2023-05-10T05:59:20;4.13;;;1.40;;
65187;SDS011;51775;51.148;6.950;2023-05-10T06:01:45;1.95;;;1.20;;
65187;SDS011;51775;51.148;6.950;2023-05-10T06:04:10;1.67;;;1.10;;
65187;SDS011;51775;51.148;6.950;2023-05-10T06:06:36;1.80;;;1.00;;
65187;SDS011;51775;51.148;6.950;2023-05-10T06:09:01;1.73;;;1.05;;
65187;SDS011;51775;51.148;6.950;2023-05-10T06:11:26;1.90;;;1.20;;
65187;SDS011;51775;51.148;6.950;2023-05-10T06:13:51;2.40;;;1.20;;
65187;SDS011;51775;51.148;6.950;2023-05-10T06:16:17;2.05;;;1.20;;
65187;SDS011;51775;51.148;6.950;2023-05-10T06:18:42;2.00;;;1.20;;
65187;SDS011;51775;51.148;6.950;2023-05-10T06:21:07;2.15;;;1.30;;
65187;SDS011;51775;51.148;6.950;2023-05-10T06:23:32;2.83;;;1.38;;
65187;SDS011;51775;51.148;6.950;2023-05-10T06:25:58;3.97;;;1.35;;
65187;SDS011;51775;51.148;6.950;2023-05-10T06:28:23;2.83;;;1.20;;
65187;SDS011;51775;51.148;6.950;2023-05-10T06:30:48;2.85;;;1.20;;
65187;SDS011;51775;51.148;6.950;2023-05-10T06:33:14;2.30;;;1.30;;
65187;SDS011;51775;51.148;6.950;2023-05-10T06:35:39;1.85;;;1.27;;
65187;SDS011;51775;51.148;6.950;2023-05-10T06:38:04;2.40;;;1.20;;
65187;SDS011;51775;51.148;6.950;2023-05-10T06:40:31;1.92;;;1.23;;
65187;SDS011;51775;51.148;6.950;2023-05-10T06:42:57;2.33;;;1.20;;
65187;SDS011;51775;51.148;6.950;2023-05-10T06:45:22;2.25;;;1.30;;
65187;SDS011;51775;51.148;6.950;2023-05-10T06:47:47;2.63;;;1.10;;
65187;SDS011;51775;51.148;6.950;2023-05-10T06:50:12;2.88;;;1.40;;
65187;SDS011;51775;51.148;6.950;2023-05-10T06:52:38;3.20;;;1.35;;
65187;SDS011;51775;51.148;6.950;2023-05-10T06:55:04;3.20;;;1.42;;
65187;SDS011;51775;51.148;6.950;2023-05-10T06:57:30;2.92;;;1.30;;
65187;SDS011;51775;51.148;6.950;2023-05-10T06:59:55;2.88;;;1.40;;
65187;SDS011;51775;51.148;6.950;2023-05-10T07:02:20;2.28;;;1.40;;
65187;SDS011;51775;51.148;6.950;2023-05-10T07:04:47;3.65;;;1.40;;
65187;SDS011;51775;51.148;6.950;2023-05-10T07:07:13;3.53;;;1.40;;
65187;SDS011;51775;51.148;6.950;2023-05-10T07:09:39;2.72;;;1.40;;
65187;SDS011;51775;51.148;6.950;2023-05-10T07:12:04;2.65;;;1.55;;
65187;SDS011;51775;51.148;6.950;2023-05-10T07:14:29;2.22;;;1.35;;
65187;SDS011;51775;51.148;6.950;2023-05-10T07:16:54;3.40;;;1.40;;
65187;SDS011;51775;51.148;6.950;2023-05-10T07:19:20;3.28;;;1.35;;
65187;SDS011;51775;51.148;6.950;2023-05-10T07:21:45;3.22;;;1.35;;
65187;SDS011;51775;51.148;6.950;2023-05-10T07:24:10;2.67;;;1.50;;
65187;SDS011;51775;51.148;6.950;2023-05-10T07:26:36;3.65;;;1.45;;
65187;SDS011;51775;51.148;6.950;2023-05-10T07:29:01;2.45;;;1.40;;
65187;SDS011;51775;51.148;6.950;2023-05-10T07:31:26;2.50;;;1.40;;
65187;SDS011;51775;51.148;6.950;2023-05-10T07:33:52;2.15;;;1.40;;
65187;SDS011;51775;51.148;6.950;2023-05-10T07:36:17;2.80;;;1.50;;
65187;SDS011;51775;51.148;6.950;2023-05-10T07:38:42;2.22;;;1.38;;
65187;SDS011;51775;51.148;6.950;2023-05-10T07:41:07;3.90;;;1.50;;
65187;SDS011;51775;51.148;6.950;2023-05-10T07:43:33;2.63;;;1.60;;
65187;SDS011;51775;51.148;6.950;2023-05-10T07:45:58;2.15;;;1.38;;
65187;SDS011;51775;51.148;6.950;2023-05-10T07:48:23;2.90;;;1.33;;
65187;SDS011;51775;51.148;6.950;2023-05-10T07:50:48;3.30;;;1.55;;
65187;SDS011;51775;51.148;6.950;2023-05-10T07:53:14;2.22;;;1.40;;
65187;SDS011;51775;51.148;6.950;2023-05-10T07:55:39;2.45;;;1.20;;
65187;SDS011;51775;51.148;6.950;2023-05-10T07:58:04;2.63;;;1.45;;
65187;SDS011;51775;51.148;6.950;2023-05-10T08:00:30;3.30;;;1.58;;
65187;SDS011;51775;51.148;6.950;2023-05-10T08:02:55;3.17;;;1.30;;
65187;SDS011;51775;51.148;6.950;2023-05-10T08:05:21;2.08;;;1.30;;
65187;SDS011;51775;51.148;6.950;2023-05-10T08:07:46;3.20;;;1.50;;
65187;SDS011;51775;51.148;6.950;2023-05-10T08:10:11;3.60;;;1.63;;
65187;SDS011;51775;51.148;6.950;2023-05-10T08:12:37;2.55;;;1.40;;
65187;SDS011;51775;51.148;6.950;2023-05-10T08:15:02;2.83;;;1.55;;
65187;SDS011;51775;51.148;6.950;2023-05-10T08:17:28;2.60;;;1.40;;
65187;SDS011;51775;51.148;6.950;2023-05-10T08:19:53;3.08;;;1.27;;
65187;SDS011;51775;51.148;6.950;2023-05-10T08:22:19;2.35;;;1.40;;
65187;SDS011;51775;51.148;6.950;2023-05-10T08:24:44;3.10;;;1.50;;
65187;SDS011;51775;51.148;6.950;2023-05-10T08:27:09;1.90;;;1.40;;
65187;SDS011;51775;51.148;6.950;2023-05-10T08:29:34;2.30;;;1.48;;
65187;SDS011;51775;51.148;6.950;2023-05-10T08:32:00;2.40;;;1.40;;
65187;SDS011;51775;51.148;6.950;2023-05-10T08:34:25;2.72;;;1.50;;
65187;SDS011;51775;51.148;6.950;2023-05-10T08:36:50;2.60;;;1.60;;
65187;SDS011;51775;51.148;6.950;2023-05-10T08:39:15;2.72;;;1.60;;
65187;SDS011;51775;51.148;6.950;2023-05-10T08:41:41;2.47;;;1.58;;
65187;SDS011;51775;51.148;6.950;2023-05-10T08:44:09;4.50;;;1.60;;
65187;SDS011;51775;51.148;6.950;2023-05-10T08:46:34;2.70;;;1.70;;
65187;SDS011;51775;51.148;6.950;2023-05-10T08:49:01;2.60;;;1.73;;
65187;SDS011;51775;51.148;6.950;2023-05-10T08:51:27;3.33;;;2.03;;
65187;SDS011;51775;51.148;6.950;2023-05-10T08:53:55;2.92;;;1.80;;
65187;SDS011;51775;51.148;6.950;2023-05-10T08:56:24;3.85;;;2.13;;
65187;SDS011;51775;51.148;6.950;2023-05-10T08:58:56;3.13;;;1.95;;
65187;SDS011;51775;51.148;6.950;2023-05-10T09:01:22;3.50;;;2.05;;
65187;SDS011;51775;51.148;6.950;2023-05-10T09:03:49;4.15;;;2.25;;
65187;SDS011;51775;51.148;6.950;2023-05-10T09:06:15;4.35;;;2.25;;
65187;SDS011;51775;51.148;6.950;2023-05-10T09:08:41;3.83;;;2.28;;
65187;SDS011;51775;51.148;6.950;2023-05-10T09:11:07;4.18;;;2.60;;
65187;SDS011;51775;51.148;6.950;2023-05-10T09:13:34;3.72;;;2.30;;
65187;SDS011;51775;51.148;6.950;2023-05-10T09:16:00;3.80;;;2.13;;
65187;SDS011;51775;51.148;6.950;2023-05-10T09:18:27;5.55;;;2.50;;
65187;SDS011;51775;51.148;6.950;2023-05-10T09:20:52;4.57;;;2.30;;
65187;SDS011;51775;51.148;6.950;2023-05-10T09:23:17;3.95;;;2.10;;
65187;SDS011;51775;51.148;6.950;2023-05-10T09:25:42;4.15;;;2.42;;
65187;SDS011;51775;51.148;6.950;2023-05-10T09:28:08;4.38;;;2.30;;
65187;SDS011;51775;51.148;6.950;2023-05-10T09:30:34;5.28;;;2.50;;
65187;SDS011;51775;51.148;6.950;2023-05-10T09:33:00;4.10;;;2.38;;
65187;SDS011;51775;51.148;6.950;2023-05-10T09:35:27;4.30;;;2.30;;
65187;SDS011;51775;51.148;6.950;2023-05-10T09:37:55;4.40;;;2.30;;
65187;SDS011;51775;51.148;6.950;2023-05-10T09:40:23;4.60;;;2.50;;
65187;SDS011;51775;51.148;6.950;2023-05-10T09:42:56;6.03;;;2.70;;
65187;SDS011;51775;51.148;6.950;2023-05-10T09:45:40;4.68;;;2.40;;
65187;SDS011;51775;51.148;6.950;2023-05-10T09:48:06;4.80;;;2.60;;
65187;SDS011;51775;51.148;6.950;2023-05-10T09:50:31;5.70;;;2.70;;
65187;SDS011;51775;51.148;6.950;2023-05-10T09:52:57;4.20;;;2.53;;
65187;SDS011;51775;51.148;6.950;2023-05-10T09:55:24;4.43;;;2.58;;
65187;SDS011;51775;51.148;6.950;2023-05-10T09:57:58;4.82;;;2.45;;
65187;SDS011;51775;51.148;6.950;2023-05-10T10:00:24;4.78;;;2.47;;
65187;SDS011;51775;51.148;6.950;2023-05-10T10:02:59;4.38;;;2.28;;
65187;SDS011;51775;51.148;6.950;2023-05-10T10:05:34;4.85;;;2.45;;
65187;SDS011;51775;51.148;6.950;2023-05-10T10:08:01;4.03;;;2.45;;
65187;SDS011;51775;51.148;6.950;2023-05-10T10:10:28;4.55;;;2.38;;
65187;SDS011;51775;51.148;6.950;2023-05-10T10:12:54;4.18;;;2.42;;
65187;SDS011;51775;51.148;6.950;2023-05-10T10:15:20;4.05;;;2.53;;
65187;SDS011;51775;51.148;6.950;2023-05-10T10:17:46;3.17;;;2.10;;
65187;SDS011;51775;51.148;6.950;2023-05-10T10:20:13;3.97;;;2.15;;
65187;SDS011;51775;51.148;6.950;2023-05-10T10:22:39;5.60;;;2.40;;
65187;SDS011;51775;51.148;6.950;2023-05-10T10:25:05;4.80;;;2.28;;
65187;SDS011;51775;51.148;6.950;2023-05-10T10:27:47;4.45;;;2.40;;
65187;SDS011;51775;51.148;6.950;2023-05-10T10:35:28;3.72;;;2.40;;
65187;SDS011;51775;51.148;6.950;2023-05-10T10:37:54;3.05;;;2.17;;
65187;SDS011;51775;51.148;6.950;2023-05-10T10:40:23;3.80;;;2.20;;
65187;SDS011;51775;51.148;6.950;2023-05-10T10:42:51;3.85;;;2.20;;
65187;SDS011;51775;51.148;6.950;2023-05-10T10:45:17;3.80;;;2.28;;
65187;SDS011;51775;51.148;6.950;2023-05-10T10:47:43;3.63;;;2.20;;
65187;SDS011;51775;51.148;6.950;2023-05-10T10:50:09;4.60;;;2.20;;
65187;SDS011;51775;51.148;6.950;2023-05-10T10:57:33;8.20;;;2.10;;
65187;SDS011;51775;51.148;6.950;2023-05-10T11:00:20;3.80;;;2.50;;
65187;SDS011;51775;51.148;6.950;2023-05-10T11:03:04;3.55;;;2.10;;
65187;SDS011;51775;51.148;6.950;2023-05-10T11:08:48;3.20;;;2.15;;
65187;SDS011;51775;51.148;6.950;2023-05-10T11:13:28;3.30;;;2.13;;
65187;SDS011;51775;51.148;6.950;2023-05-10T11:15:55;3.97;;;2.35;;
65187;SDS011;51775;51.148;6.950;2023-05-10T11:18:23;4.05;;;2.25;;
65187;SDS011;51775;51.148;6.950;2023-05-10T11:21:00;3.55;;;2.20;;
65187;SDS011;51775;51.148;6.950;2023-05-10T11:23:29;5.13;;;2.20;;
65187;SDS011;51775;51.148;6.950;2023-05-10T11:25:56;3.42;;;2.08;;
65187;SDS011;51775;51.148;6.950;2023-05-10T11:28:21;3.65;;;2.20;;
65187;SDS011;51775;51.148;6.950;2023-05-10T11:30:47;3.67;;;2.38;;
65187;SDS011;51775;51.148;6.950;2023-05-10T11:33:16;4.07;;;2.40;;
65187;SDS011;51775;51.148;6.950;2023-05-10T11:35:42;4.30;;;2.55;;
65187;SDS011;51775;51.148;6.950;2023-05-10T11:38:08;3.88;;;2.40;;
65187;SDS011;51775;51.148;6.950;2023-05-10T11:40:35;3.47;;;2.10;;
65187;SDS011;51775;51.148;6.950;2023-05-10T11:43:01;3.80;;;2.20;;
65187;SDS011;51775;51.148;6.950;2023-05-10T11:45:28;3.13;;;2.00;;
65187;SDS011;51775;51.148;6.950;2023-05-10T11:47:54;3.40;;;2.20;;
65187;SDS011;51775;51.148;6.950;2023-05-10T11:50:20;3.17;;;2.15;;
65187;SDS011;51775;51.148;6.950;2023-05-10T11:52:45;3.63;;;2.17;;
65187;SDS011;51775;51.148;6.950;2023-05-10T11:55:15;3.70;;;2.22;;
65187;SDS011;51775;51.148;6.950;2023-05-10T11:57:41;4.53;;;2.35;;
65187;SDS011;51775;51.148;6.950;2023-05-10T12:00:06;4.13;;;2.45;;
65187;SDS011;51775;51.148;6.950;2023-05-10T12:02:32;4.72;;;2.40;;
65187;SDS011;51775;51.148;6.950;2023-05-10T12:04:57;3.42;;;2.50;;
65187;SDS011;51775;51.148;6.950;2023-05-10T12:07:22;4.30;;;2.50;;
65187;SDS011;51775;51.148;6.950;2023-05-10T12:10:07;4.25;;;2.53;;
65187;SDS011;51775;51.148;6.950;2023-05-10T12:12:38;4.35;;;2.70;;
65187;SDS011;51775;51.148;6.950;2023-05-10T12:15:11;4.28;;;2.70;;
65187;SDS011;51775;51.148;6.950;2023-05-10T12:17:47;3.92;;;2.47;;
65187;SDS011;51775;51.148;6.950;2023-05-10T12:20:17;4.25;;;2.50;;
65187;SDS011;51775;51.148;6.950;2023-05-10T12:22:44;3.80;;;2.30;;
65187;SDS011;51775;51.148;6.950;2023-05-10T12:25:11;3.65;;;2.25;;
65187;SDS011;51775;51.148;6.950;2023-05-10T12:27:36;3.75;;;2.38;;
65187;SDS011;51775;51.148;6.950;2023-05-10T12:30:02;3.38;;;2.10;;
65187;SDS011;51775;51.148;6.950;2023-05-10T12:32:37;5.43;;;2.38;;
65187;SDS011;51775;51.148;6.950;2023-05-10T12:35:06;3.58;;;2.30;;
65187;SDS011;51775;51.148;6.950;2023-05-10T12:37:32;3.60;;;2.38;;
65187;SDS011;51775;51.148;6.950;2023-05-10T12:39:57;3.90;;;2.38;;
65187;SDS011;51775;51.148;6.950;2023-05-10T12:42:22;4.25;;;2.38;;
65187;SDS011;51775;51.148;6.950;2023-05-10T12:44:47;4.40;;;2.40;;
65187;SDS011;51775;51.148;6.950;2023-05-10T12:47:13;5.93;;;2.20;;
65187;SDS011;51775;51.148;6.950;2023-05-10T12:49:38;3.97;;;2.13;;
65187;SDS011;51775;51.148;6.950;2023-05-10T12:52:03;3.60;;;2.00;;
65187;SDS011;51775;51.148;6.950;2023-05-10T12:54:29;4.10;;;2.20;;
65187;SDS011;51775;51.148;6.950;2023-05-10T12:56:54;4.53;;;2.05;;
65187;SDS011;51775;51.148;6.950;2023-05-10T12:59:19;3.63;;;2.30;;
65187;SDS011;51775;51.148;6.950;2023-05-10T13:01:45;4.25;;;2.45;;
65187;SDS011;51775;51.148;6.950;2023-05-10T13:04:10;3.58;;;2.30;;
65187;SDS011;51775;51.148;6.950;2023-05-10T13:06:35;3.20;;;2.20;;
65187;SDS011;51775;51.148;6.950;2023-05-10T13:09:02;3.97;;;2.47;;
65187;SDS011;51775;51.148;6.950;2023-05-10T13:11:27;3.80;;;2.53;;
65187;SDS011;51775;51.148;6.950;2023-05-10T13:13:52;3.80;;;2.42;;
65187;SDS011;51775;51.148;6.950;2023-05-10T13:16:17;3.95;;;2.40;;
65187;SDS011;51775;51.148;6.950;2023-05-10T13:18:43;3.90;;;2.78;;
65187;SDS011;51775;51.148;6.950;2023-05-10T13:21:08;3.97;;;2.35;;
65187;SDS011;51775;51.148;6.950;2023-05-10T13:23:34;3.80;;;2.50;;
65187;SDS011;51775;51.148;6.950;2023-05-10T13:25:59;4.10;;;2.50;;
65187;SDS011;51775;51.148;6.950;2023-05-10T13:28:24;4.80;;;2.70;;
65187;SDS011;51775;51.148;6.950;2023-05-10T13:30:50;3.42;;;2.40;;
65187;SDS011;51775;51.148;6.950;2023-05-10T13:33:15;3.53;;;2.45;;
65187;SDS011;51775;51.148;6.950;2023-05-10T13:35:40;4.35;;;2.75;;
65187;SDS011;51775;51.148;6.950;2023-05-10T13:38:05;4.45;;;2.70;;
65187;SDS011;51775;51.148;6.950;2023-05-10T13:40:31;5.75;;;2.78;;
65187;SDS011;51775;51.148;6.950;2023-05-10T13:42:56;4.25;;;2.67;;
65187;SDS011;51775;51.148;6.950;2023-05-10T13:45:21;4.25;;;2.47;;
65187;SDS011;51775;51.148;6.950;2023-05-10T13:47:47;3.92;;;2.70;;
65187;SDS011;51775;51.148;6.950;2023-05-10T13:50:12;3.58;;;2.45;;
65187;SDS011;51775;51.148;6.950;2023-05-10T13:52:37;4.55;;;2.80;;
65187;SDS011;51775;51.148;6.950;2023-05-10T13:55:02;4.07;;;2.70;;
65187;SDS011;51775;51.148;6.950;2023-05-10T13:57:28;3.70;;;2.70;;
65187;SDS011;51775;51.148;6.950;2023-05-10T13:59:53;4.13;;;2.80;;
65187;SDS011;51775;51.148;6.950;2023-05-10T14:02:19;3.80;;;2.70;;
65187;SDS011;51775;51.148;6.950;2023-05-10T14:04:44;4.72;;;3.10;;
65187;SDS011;51775;51.148;6.950;2023-05-10T14:07:09;4.68;;;2.53;;
65187;SDS011;51775;51.148;6.950;2023-05-10T14:09:34;3.97;;;2.72;;
65187;SDS011;51775;51.148;6.950;2023-05-10T14:12:00;4.20;;;2.80;;
65187;SDS011;51775;51.148;6.950;2023-05-10T14:14:25;4.28;;;2.60;;
65187;SDS011;51775;51.148;6.950;2023-05-10T14:16:50;3.83;;;2.72;;
65187;SDS011;51775;51.148;6.950;2023-05-10T14:19:16;3.50;;;2.47;;
65187;SDS011;51775;51.148;6.950;2023-05-10T14:21:41;3.70;;;2.53;;
65187;SDS011;51775;51.148;6.950;2023-05-10T14:24:06;3.67;;;2.53;;
65187;SDS011;51775;51.148;6.950;2023-05-10T14:26:31;3.40;;;2.22;;
65187;SDS011;51775;51.148;6.950;2023-05-10T14:28:57;3.65;;;2.60;;
65187;SDS011;51775;51.148;6.950;2023-05-10T14:31:22;4.03;;;2.60;;
65187;SDS011;51775;51.148;6.950;2023-05-10T14:33:47;4.00;;;2.63;;
65187;SDS011;51775;51.148;6.950;2023-05-10T14:36:13;3.92;;;2.60;;
65187;SDS011;51775;51.148;6.950;2023-05-10T14:38:39;4.18;;;2.47;;
65187;SDS011;51775;51.148;6.950;2023-05-10T14:41:04;4.75;;;2.65;;
65187;SDS011;51775;51.148;6.950;2023-05-10T14:43:29;4.72;;;2.40;;
65187;SDS011;51775;51.148;6.950;2023-05-10T14:45:55;4.15;;;2.35;;
65187;SDS011;51775;51.148;6.950;2023-05-10T14:48:20;4.72;;;2.55;;
65187;SDS011;51775;51.148;6.950;2023-05-10T14:50:45;3.65;;;2.30;;
65187;SDS011;51775;51.148;6.950;2023-05-10T14:53:11;4.68;;;2.22;;
65187;SDS011;51775;51.148;6.950;2023-05-10T14:55:36;3.60;;;2.10;;
65187;SDS011;51775;51.148;6.950;2023-05-10T14:58:02;4.70;;;2.38;;
65187;SDS011;51775;51.148;6.950;2023-05-10T15:00:28;3.20;;;2.20;;
65187;SDS011;51775;51.148;6.950;2023-05-10T15:02:54;5.00;;;2.30;;
65187;SDS011;51775;51.148;6.950;2023-05-10T15:05:19;4.43;;;2.40;;
65187;SDS011;51775;51.148;6.950;2023-05-10T15:07:44;5.25;;;2.38;;
65187;SDS011;51775;51.148;6.950;2023-05-10T15:10:10;4.88;;;2.15;;
65187;SDS011;51775;51.148;6.950;2023-05-10T15:12:35;5.53;;;2.20;;
65187;SDS011;51775;51.148;6.950;2023-05-10T15:15:00;4.03;;;2.35;;
65187;SDS011;51775;51.148;6.950;2023-05-10T15:17:26;4.55;;;2.22;;